Time;durP1;ratioP1;P1;durP2;ratioP2;P2;SDS_P1;SDS_P2;PMS_P1;PMS_P2;Temp;Humidity;BMP_temperature;BMP_pressure;BME280_temperature;BME280_humidity;BME280_pressure;Samples;Min_cycle;Max_cycle;Signal;HPM_P1;HPM_P2
2022/04/11 00:01:50;;;;;;;10.05;5.13;;;2.20;99.90;;;;;;4944648;29;20048;-58
2022/04/11 00:04:15;;;;;;;9.45;5.15;;;2.20;99.90;;;;;;4952865;29;20062;-61
2022/04/11 00:06:41;;;;;;;12.52;5.47;;;2.20;99.90;;;;;;4953794;29;20031;-56
2022/04/11 00:09:06;;;;;;;10.55;5.15;;;2.20;99.90;;;;;;4949274;28;20386;-57
2022/04/11 00:11:32;;;;;;;11.05;5.35;;;2.20;99.90;;;;;;4945640;29;20560;-60
2022/04/11 00:13:57;;;;;;;6.63;4.63;;;2.20;99.90;;;;;;4953194;29;20046;-62
2022/04/11 00:16:23;;;;;;;8.35;5.28;;;2.10;99.90;;;;;;4948751;29;20035;-58
2022/04/11 00:18:48;;;;;;;8.60;4.55;;;2.10;99.90;;;;;;4950759;28;20039;-59
2022/04/11 00:21:14;;;;;;;12.90;5.65;;;2.00;99.90;;;;;;4953232;29;20043;-59
2022/04/11 00:23:40;;;;;;;6.20;3.72;;;2.00;99.90;;;;;;4949719;29;20059;-63
2022/04/11 00:26:05;;;;;;;10.32;4.60;;;1.90;99.90;;;;;;4944781;29;20047;-58
2022/04/11 00:28:31;;;;;;;8.07;5.03;;;1.90;99.90;;;;;;4953048;28;20075;-59
2022/04/11 00:30:56;;;;;;;8.43;5.40;;;2.00;99.90;;;;;;4956567;29;20062;-57
2022/04/11 00:33:22;;;;;;;10.73;5.40;;;2.00;99.90;;;;;;4951783;29;20142;-63
2022/04/11 00:35:48;;;;;;;9.02;5.18;;;2.00;99.90;;;;;;4954698;29;20043;-58
2022/04/11 00:38:13;;;;;;;8.73;5.13;;;1.90;99.90;;;;;;4956431;28;20043;-57
2022/04/11 00:40:39;;;;;;;11.93;5.85;;;1.80;99.90;;;;;;4954187;29;20042;-58
2022/04/11 00:43:05;;;;;;;9.10;5.80;;;1.70;99.90;;;;;;4948819;29;20051;-61
2022/04/11 00:45:30;;;;;;;10.27;6.22;;;1.60;99.90;;;;;;4956377;29;20213;-62
2022/04/11 00:47:56;;;;;;;11.93;6.53;;;1.60;99.90;;;;;;4956682;29;20069;-62
2022/04/11 00:50:22;;;;;;;10.90;5.78;;;1.70;99.90;;;;;;4951805;29;20439;-57
2022/04/11 00:52:51;;;;;;;10.20;5.75;;;1.60;99.90;;;;;;4956215;29;20039;-58
2022/04/11 00:55:21;;;;;;;9.20;5.50;;;1.60;99.90;;;;;;4956346;29;20147;-58
2022/04/11 00:57:47;;;;;;;8.48;5.75;;;1.60;99.90;;;;;;4954636;29;20035;-59
2022/04/11 01:00:14;;;;;;;11.50;5.82;;;1.60;99.90;;;;;;4955151;28;20118;-59
2022/04/11 01:02:40;;;;;;;8.00;5.32;;;1.50;99.90;;;;;;4955716;29;20383;-57
2022/04/11 01:05:11;;;;;;;10.48;5.45;;;1.50;99.90;;;;;;4956374;29;20090;-58
2022/04/11 01:07:37;;;;;;;10.82;6.40;;;1.50;99.90;;;;;;4952441;29;20078;-61
2022/04/11 01:10:06;;;;;;;10.75;5.50;;;1.50;99.90;;;;;;4955796;28;20063;-57
2022/04/11 01:12:32;;;;;;;7.47;5.18;;;1.40;99.90;;;;;;4955830;29;20047;-57
2022/04/11 01:14:58;;;;;;;8.00;5.45;;;1.40;99.90;;;;;;4952886;29;20114;-59
2022/04/11 01:17:34;;;;;;;9.98;5.38;;;1.40;99.90;;;;;;4951332;29;20901;-59
2022/04/11 01:20:06;;;;;;;10.57;5.35;;;1.30;99.90;;;;;;4955549;29;20047;-56
2022/04/11 01:22:32;;;;;;;8.98;5.68;;;1.30;99.90;;;;;;4954785;29;20043;-59
2022/04/11 01:24:57;;;;;;;7.50;4.95;;;1.40;99.90;;;;;;4945763;29;20040;-60
2022/04/11 01:27:25;;;;;;;7.88;5.40;;;1.40;99.90;;;;;;4950549;29;20414;-58
2022/04/11 01:29:50;;;;;;;10.48;5.80;;;1.40;99.90;;;;;;4952879;28;20054;-59
2022/04/11 01:32:16;;;;;;;10.30;5.50;;;1.40;99.90;;;;;;4955661;29;20040;-57
2022/04/11 01:34:41;;;;;;;8.00;5.88;;;1.40;99.90;;;;;;4946243;29;20556;-61
2022/04/11 01:37:07;;;;;;;8.30;5.40;;;1.40;99.90;;;;;;4955374;29;20595;-57
2022/04/11 01:39:32;;;;;;;6.45;4.45;;;1.40;99.90;;;;;;4952685;29;20047;-58
2022/04/11 01:41:58;;;;;;;6.70;4.32;;;1.30;99.90;;;;;;4948432;28;20031;-62
2022/04/11 01:44:23;;;;;;;7.28;4.60;;;1.20;99.90;;;;;;4955269;29;20114;-56
2022/04/11 01:46:50;;;;;;;6.70;4.70;;;1.20;99.90;;;;;;4938356;29;20202;-57
2022/04/11 01:49:16;;;;;;;6.65;4.65;;;1.10;99.90;;;;;;4951524;29;20054;-58
2022/04/11 01:51:41;;;;;;;7.32;4.78;;;1.10;99.90;;;;;;4937125;29;20054;-58
2022/04/11 01:54:07;;;;;;;6.50;4.43;;;1.10;99.90;;;;;;4955117;29;20043;-59
2022/04/11 01:56:33;;;;;;;10.15;4.40;;;1.10;99.90;;;;;;4951905;29;20401;-60
2022/04/11 01:58:58;;;;;;;6.53;4.07;;;1.00;99.90;;;;;;4954021;28;20043;-62
2022/04/11 02:01:24;;;;;;;7.97;4.75;;;0.90;99.90;;;;;;4955142;29;20046;-57
2022/04/11 02:03:49;;;;;;;11.52;5.00;;;0.90;99.90;;;;;;4955123;29;20035;-58
2022/04/11 02:06:15;;;;;;;8.30;4.88;;;0.90;99.90;;;;;;4947920;29;20049;-59
2022/04/11 02:08:40;;;;;;;7.70;5.20;;;0.90;99.90;;;;;;4954803;28;20127;-63
2022/04/11 02:11:08;;;;;;;10.13;5.10;;;0.90;99.90;;;;;;4954927;29;20118;-57
2022/04/11 02:13:33;;;;;;;6.63;4.28;;;0.90;99.90;;;;;;4947490;29;20082;-58
2022/04/11 02:15:59;;;;;;;7.30;4.25;;;1.00;99.90;;;;;;4954376;29;20081;-61
2022/04/11 02:18:25;;;;;;;7.15;4.35;;;0.90;99.90;;;;;;4954888;29;20097;-55
2022/04/11 02:20:50;;;;;;;6.85;4.30;;;0.90;99.90;;;;;;4954634;29;20110;-57
2022/04/11 02:23:16;;;;;;;8.93;4.50;;;0.90;99.90;;;;;;4930816;29;20040;-58
2022/04/11 02:25:41;;;;;;;7.93;4.78;;;0.90;99.90;;;;;;4949577;29;20077;-59
2022/04/11 02:28:07;;;;;;;10.98;4.97;;;1.00;99.90;;;;;;4954307;29;20043;-62
2022/04/11 02:30:33;;;;;;;8.15;4.43;;;0.90;99.90;;;;;;4931807;29;20043;-57
2022/04/11 02:32:58;;;;;;;8.68;3.95;;;1.00;99.90;;;;;;4953917;29;20039;-58
2022/04/11 02:35:24;;;;;;;7.80;4.63;;;0.90;99.90;;;;;;4942353;29;20055;-59
2022/04/11 02:37:50;;;;;;;11.77;4.50;;;1.00;99.90;;;;;;4950104;29;20061;-59
2022/04/11 02:40:16;;;;;;;9.00;4.40;;;1.00;99.90;;;;;;4928939;29;20050;-57
2022/04/11 02:42:43;;;;;;;7.28;4.00;;;1.10;99.90;;;;;;4953975;29;20543;-58
2022/04/11 02:45:12;;;;;;;5.97;4.03;;;1.00;99.90;;;;;;4954381;29;20043;-57
2022/04/11 02:47:39;;;;;;;5.25;3.83;;;1.00;99.90;;;;;;4944502;29;20050;-58
2022/04/11 02:50:05;;;;;;;6.68;4.00;;;0.80;99.90;;;;;;4954324;28;20046;-59
2022/04/11 02:52:31;;;;;;;8.75;4.63;;;0.80;99.90;;;;;;4953789;28;20517;-59
2022/04/11 02:54:56;;;;;;;6.47;3.97;;;0.90;99.90;;;;;;4954166;29;20043;-60
2022/04/11 02:57:25;;;;;;;7.38;4.35;;;1.00;99.90;;;;;;4951080;29;20047;-59
2022/04/11 02:59:51;;;;;;;7.68;4.82;;;1.00;99.90;;;;;;4953977;28;20055;-57
2022/04/11 03:02:18;;;;;;;8.55;3.92;;;1.10;99.90;;;;;;4954228;29;20031;-58
2022/04/11 03:04:43;;;;;;;7.22;4.13;;;1.00;99.90;;;;;;4949136;29;20486;-56
2022/04/11 03:07:09;;;;;;;7.97;4.40;;;1.10;99.90;;;;;;4951430;29;20035;-57
2022/04/11 03:09:35;;;;;;;6.88;4.35;;;1.00;99.90;;;;;;4953816;28;20039;-59
2022/04/11 03:12:00;;;;;;;10.10;4.35;;;1.10;99.90;;;;;;4952656;29;20051;-60
2022/04/11 03:14:26;;;;;;;4.97;3.47;;;1.10;99.90;;;;;;4953302;29;20106;-57
2022/04/11 03:16:51;;;;;;;6.03;3.65;;;0.90;99.90;;;;;;4953611;29;20047;-55
2022/04/11 03:19:17;;;;;;;6.10;3.70;;;0.80;99.90;;;;;;4952183;28;20073;-60
2022/04/11 03:21:43;;;;;;;6.15;3.80;;;0.80;99.90;;;;;;4946873;29;20059;-59
2022/04/11 03:24:09;;;;;;;5.72;3.85;;;0.70;99.90;;;;;;4953336;29;20129;-63
2022/04/11 03:26:34;;;;;;;5.82;3.80;;;0.70;99.90;;;;;;4953998;29;20039;-57
2022/04/11 03:29:00;;;;;;;5.57;4.10;;;0.60;99.90;;;;;;4951063;28;20130;-58
2022/04/11 03:31:25;;;;;;;5.93;4.20;;;0.60;99.90;;;;;;4944106;29;20039;-56
2022/04/11 03:33:51;;;;;;;6.35;3.75;;;0.50;99.90;;;;;;4945238;29;20095;-59
2022/04/11 03:36:17;;;;;;;7.70;4.53;;;0.50;99.90;;;;;;4952203;29;20062;-62
2022/04/11 03:38:42;;;;;;;8.23;4.28;;;0.50;99.90;;;;;;4940669;29;20047;-56
2022/04/11 03:41:08;;;;;;;7.10;4.50;;;0.50;99.90;;;;;;4953567;29;20043;-57
2022/04/11 03:43:34;;;;;;;6.07;4.07;;;0.50;99.90;;;;;;4952240;29;20055;-57
2022/04/11 03:45:59;;;;;;;7.38;4.57;;;0.50;99.90;;;;;;4942378;29;20062;-59
2022/04/11 03:48:25;;;;;;;7.45;4.70;;;0.60;99.90;;;;;;4948215;29;20458;-57
2022/04/11 03:50:51;;;;;;;7.45;4.38;;;0.70;99.90;;;;;;4942559;29;20047;-59
2022/04/11 03:53:17;;;;;;;7.13;4.03;;;0.80;99.90;;;;;;4946538;29;20043;-57
2022/04/11 03:55:42;;;;;;;6.07;3.47;;;0.80;99.90;;;;;;4950329;29;20129;-57
2022/04/11 03:58:08;;;;;;;5.30;3.30;;;0.70;99.90;;;;;;4948535;29;20047;-59
2022/04/11 04:00:34;;;;;;;7.90;4.60;;;0.60;99.90;;;;;;4949773;29;20075;-59
2022/04/11 04:03:26;;;;;;;5.25;3.67;;;0.70;99.90;;;;;;4953085;28;20079;-59
2022/04/11 04:05:52;;;;;;;6.57;4.13;;;0.80;99.90;;;;;;4953732;29;21019;-61
2022/04/11 04:08:17;;;;;;;6.85;3.97;;;1.00;99.90;;;;;;4952705;28;20122;-62
2022/04/11 04:10:44;;;;;;;6.20;3.92;;;1.00;99.90;;;;;;4947090;29;20144;-57
2022/04/11 04:13:10;;;;;;;5.68;3.78;;;0.90;99.90;;;;;;4954682;29;20043;-61
2022/04/11 04:15:36;;;;;;;7.53;4.00;;;1.00;99.90;;;;;;4952750;29;20426;-63
2022/04/11 04:18:02;;;;;;;10.15;4.15;;;0.90;99.90;;;;;;4954692;28;20527;-57
2022/04/11 04:20:27;;;;;;;7.35;4.25;;;1.00;99.90;;;;;;4956458;29;20035;-60
2022/04/11 04:22:53;;;;;;;7.20;4.05;;;0.90;99.90;;;;;;4956615;29;20441;-56
2022/04/11 04:25:19;;;;;;;6.53;4.40;;;1.00;99.90;;;;;;4954165;29;20074;-58
2022/04/11 04:27:45;;;;;;;6.47;4.03;;;1.00;99.90;;;;;;4952205;29;20043;-62
2022/04/11 04:30:11;;;;;;;6.65;4.15;;;1.00;99.90;;;;;;4951206;29;20409;-62
2022/04/11 04:32:36;;;;;;;7.18;4.38;;;1.00;99.90;;;;;;4956458;29;20043;-61
2022/04/11 04:35:02;;;;;;;10.00;5.13;;;1.10;99.90;;;;;;4956390;29;20134;-60
2022/04/11 04:37:28;;;;;;;9.48;5.25;;;1.20;99.90;;;;;;4948977;28;20137;-60
2022/04/11 04:39:53;;;;;;;9.60;5.35;;;1.30;99.90;;;;;;4948251;29;20498;-60
2022/04/11 04:42:22;;;;;;;7.88;4.90;;;1.30;99.90;;;;;;4951799;29;20557;-61
2022/04/11 04:44:48;;;;;;;8.45;4.43;;;1.40;99.90;;;;;;4947109;29;20464;-61
2022/04/11 04:47:15;;;;;;;7.18;4.82;;;1.40;99.90;;;;;;4954785;29;20497;-60
2022/04/11 04:49:42;;;;;;;6.95;4.20;;;1.40;99.90;;;;;;4953077;28;20035;-61
2022/04/11 04:52:08;;;;;;;7.78;4.80;;;1.50;99.90;;;;;;4948367;29;20063;-61
2022/04/11 04:54:34;;;;;;;7.50;4.88;;;1.50;99.90;;;;;;4949517;29;20043;-61
2022/04/11 04:57:00;;;;;;;9.35;4.88;;;1.50;99.90;;;;;;4955785;29;20043;-61
2022/04/11 04:59:25;;;;;;;7.80;5.30;;;1.50;99.90;;;;;;4953311;28;20151;-61
2022/04/11 05:01:51;;;;;;;8.73;5.10;;;1.60;99.90;;;;;;4938659;28;20418;-61
2022/04/11 05:04:17;;;;;;;9.60;5.53;;;1.60;99.90;;;;;;4947335;28;20122;-60
2022/04/11 05:06:42;;;;;;;16.10;6.97;;;1.70;99.90;;;;;;4949995;28;20494;-61
2022/04/11 05:09:08;;;;;;;11.93;6.63;;;1.80;99.90;;;;;;4949277;28;20106;-60
2022/04/11 05:11:33;;;;;;;9.98;6.50;;;1.90;99.90;;;;;;4951247;28;20086;-60
2022/04/11 05:13:59;;;;;;;7.93;5.47;;;1.90;99.90;;;;;;4951000;28;20134;-59
2022/04/11 05:16:24;;;;;;;12.45;5.78;;;1.80;99.90;;;;;;4939650;28;20039;-60
2022/04/11 05:18:50;;;;;;;7.93;5.57;;;1.80;99.90;;;;;;4948185;29;20054;-61
2022/04/11 05:21:15;;;;;;;11.00;5.60;;;1.90;99.90;;;;;;4949923;28;20130;-60
2022/04/11 05:23:41;;;;;;;8.07;5.47;;;1.90;99.90;;;;;;4951038;29;20130;-60
2022/04/11 05:26:07;;;;;;;8.80;5.47;;;2.00;99.90;;;;;;4951784;28;20051;-60
2022/04/11 05:28:33;;;;;;;8.43;5.70;;;1.90;99.90;;;;;;4941609;28;20039;-60
2022/04/11 05:30:59;;;;;;;11.45;6.78;;;1.90;99.90;;;;;;4946388;29;20039;-61
2022/04/11 05:33:25;;;;;;;8.90;6.28;;;2.00;99.90;;;;;;4943185;29;20453;-59
2022/04/11 05:35:52;;;;;;;9.13;6.10;;;2.00;99.90;;;;;;4950618;28;20423;-60
2022/04/11 05:38:19;;;;;;;7.97;6.28;;;2.00;99.90;;;;;;4951513;28;20090;-60
2022/04/11 05:40:45;;;;;;;10.63;6.88;;;2.00;99.90;;;;;;4944870;28;20094;-61
2022/04/11 05:43:13;;;;;;;9.20;6.53;;;2.10;99.90;;;;;;4943602;28;20055;-60
2022/04/11 05:45:39;;;;;;;12.13;7.13;;;2.20;99.90;;;;;;4949306;28;20409;-59
2022/04/11 05:48:05;;;;;;;11.73;7.03;;;2.20;99.90;;;;;;4950735;28;20054;-60
2022/04/11 05:50:30;;;;;;;10.60;7.25;;;2.30;99.90;;;;;;4942516;29;20039;-61
2022/04/11 05:52:56;;;;;;;8.68;6.07;;;2.40;99.90;;;;;;4946697;28;20102;-61
2022/04/11 05:55:23;;;;;;;10.05;6.18;;;2.50;99.90;;;;;;4952585;29;20066;-61
2022/04/11 05:57:49;;;;;;;12.52;6.93;;;2.60;99.90;;;;;;4950366;29;20098;-61
2022/04/11 06:00:15;;;;;;;8.35;6.32;;;2.60;99.90;;;;;;4949245;29;20153;-60
2022/04/11 06:02:41;;;;;;;9.65;6.93;;;2.60;99.90;;;;;;4953347;29;20142;-59
2022/04/11 06:05:07;;;;;;;8.55;6.32;;;2.70;99.90;;;;;;4953569;28;20102;-61
2022/04/11 06:07:33;;;;;;;10.30;6.82;;;2.70;99.90;;;;;;4939270;29;20051;-61
2022/04/11 06:09:59;;;;;;;12.43;7.43;;;2.80;99.90;;;;;;4952219;29;20074;-61
2022/04/11 06:12:26;;;;;;;19.10;7.68;;;2.90;99.90;;;;;;4949728;28;20588;-60
2022/04/11 06:14:53;;;;;;;12.98;7.55;;;3.00;99.90;;;;;;4945280;28;20128;-60
2022/04/11 06:17:26;;;;;;;12.70;7.07;;;3.00;99.90;;;;;;4952087;29;20533;-60
2022/04/11 06:19:53;;;;;;;11.63;7.68;;;3.10;99.90;;;;;;4954084;28;20043;-60
2022/04/11 06:22:19;;;;;;;9.80;7.15;;;3.10;99.90;;;;;;4946738;28;20094;-60
2022/04/11 06:24:46;;;;;;;11.02;6.72;;;3.20;99.90;;;;;;4946884;28;20031;-60
2022/04/11 06:27:11;;;;;;;9.57;6.78;;;3.20;99.90;;;;;;4952593;28;20098;-61
2022/04/11 06:29:37;;;;;;;9.30;6.40;;;3.30;99.90;;;;;;4952673;28;20043;-60
2022/04/11 06:32:04;;;;;;;9.18;6.82;;;3.40;99.90;;;;;;4949832;29;20046;-60
2022/04/11 06:34:34;;;;;;;9.98;6.95;;;3.50;99.90;;;;;;4953399;29;20036;-60
2022/04/11 06:36:59;;;;;;;15.73;7.50;;;3.60;99.90;;;;;;4952881;29;20045;-60
2022/04/11 06:39:25;;;;;;;14.35;8.05;;;3.70;99.90;;;;;;4949911;28;20039;-60
2022/04/11 06:41:51;;;;;;;12.02;8.70;;;3.90;99.90;;;;;;4943017;29;20083;-61
2022/04/11 06:44:16;;;;;;;13.52;9.55;;;4.00;99.90;;;;;;4949817;28;20079;-61
2022/04/11 06:46:42;;;;;;;12.68;8.27;;;4.20;99.90;;;;;;4944899;29;20043;-61
2022/04/11 06:49:08;;;;;;;17.95;9.80;;;4.30;99.90;;;;;;4942363;28;20414;-60
2022/04/11 06:51:33;;;;;;;15.65;9.05;;;4.50;99.90;;;;;;4945943;29;20043;-61
2022/04/11 06:53:59;;;;;;;16.83;9.85;;;4.60;99.90;;;;;;4952260;28;20041;-61
2022/04/11 06:56:25;;;;;;;14.63;9.10;;;4.70;99.90;;;;;;4949173;29;20039;-61
2022/04/11 06:58:51;;;;;;;17.45;10.25;;;4.80;99.90;;;;;;4939439;28;20110;-61
2022/04/11 07:01:16;;;;;;;17.02;9.63;;;4.90;99.90;;;;;;4942690;28;20430;-61
2022/04/11 07:03:42;;;;;;;18.02;10.60;;;5.00;99.90;;;;;;4943475;28;20085;-60
2022/04/11 07:06:08;;;;;;;23.67;10.55;;;5.10;99.90;;;;;;4951834;28;20109;-61
2022/04/11 07:08:34;;;;;;;14.63;10.18;;;5.20;99.90;;;;;;4947910;28;20042;-61
2022/04/11 07:11:00;;;;;;;15.43;9.70;;;5.30;99.90;;;;;;4950658;28;20118;-61
2022/04/11 07:13:26;;;;;;;16.02;9.32;;;5.40;99.90;;;;;;4944383;29;20079;-61
2022/04/11 07:15:52;;;;;;;15.07;9.80;;;5.50;99.90;;;;;;4942050;28;20031;-61
2022/04/11 07:18:19;;;;;;;12.13;9.50;;;5.60;99.90;;;;;;4936897;28;20043;-61
2022/04/11 07:20:47;;;;;;;13.32;9.13;;;5.70;99.90;;;;;;4950417;28;20162;-61
2022/04/11 07:23:13;;;;;;;18.15;9.88;;;5.70;99.90;;;;;;4953580;28;20386;-61
2022/04/11 07:25:39;;;;;;;17.90;9.85;;;5.80;99.90;;;;;;4950896;28;20502;-61
2022/04/11 07:28:05;;;;;;;19.27;9.75;;;5.90;99.90;;;;;;4943854;28;20069;-61
2022/04/11 07:30:32;;;;;;;18.20;9.75;;;6.00;99.90;;;;;;4946369;28;20035;-61
2022/04/11 07:32:57;;;;;;;15.63;9.45;;;6.10;99.90;;;;;;4952232;28;20125;-61
2022/04/11 07:35:23;;;;;;;14.80;9.82;;;6.20;99.90;;;;;;4954105;28;20126;-61
2022/04/11 07:37:49;;;;;;;16.83;9.68;;;6.30;99.90;;;;;;4947639;29;20043;-61
2022/04/11 07:40:15;;;;;;;15.30;10.10;;;6.40;99.90;;;;;;4945047;29;20090;-61
2022/04/11 07:42:40;;;;;;;15.70;9.23;;;6.50;99.90;;;;;;4952647;29;20046;-61
2022/04/11 07:45:06;;;;;;;14.02;9.20;;;6.60;99.90;;;;;;4953649;29;20525;-61
2022/04/11 07:47:32;;;;;;;16.85;10.07;;;6.70;99.90;;;;;;4941389;29;20055;-61
2022/04/11 07:49:57;;;;;;;19.15;10.30;;;6.90;99.90;;;;;;4951556;28;20039;-61
2022/04/11 07:52:23;;;;;;;14.27;9.85;;;6.90;99.90;;;;;;4952447;29;20161;-61
2022/04/11 07:54:49;;;;;;;22.88;9.85;;;7.00;99.90;;;;;;4946213;29;20046;-61
2022/04/11 07:57:14;;;;;;;22.38;9.55;;;7.10;99.90;;;;;;4946634;29;20054;-61
2022/04/11 07:59:40;;;;;;;18.75;9.60;;;7.20;99.90;;;;;;4929177;29;20047;-60
2022/04/11 08:02:06;;;;;;;14.65;9.27;;;7.30;99.90;;;;;;4934285;29;20405;-60
2022/04/11 08:04:32;;;;;;;15.43;9.25;;;7.40;99.90;;;;;;4931291;29;20537;-60
2022/04/11 08:06:59;;;;;;;16.70;10.63;;;7.40;99.90;;;;;;4935517;29;20027;-61
2022/04/11 08:09:25;;;;;;;18.10;10.20;;;7.60;99.90;;;;;;4933200;29;20044;-60
2022/04/11 08:11:50;;;;;;;19.25;10.70;;;7.70;99.90;;;;;;4939282;29;20094;-61
2022/04/11 08:14:17;;;;;;;15.23;9.60;;;7.90;99.90;;;;;;4935968;29;20044;-60
2022/04/11 08:16:42;;;;;;;14.43;9.60;;;7.90;99.90;;;;;;4932279;29;20040;-61
2022/04/11 08:24:19;;;;;;;18.33;10.00;;;8.50;99.90;;;;;;5340407;23;20521;-62
2022/04/11 08:34:25;;;;;;;15.85;10.35;;;9.00;99.90;;;;;;4943611;29;20051;-59
2022/04/11 08:36:50;;;;;;;16.27;10.68;;;9.10;99.90;;;;;;4941767;29;20032;-59
2022/04/11 08:39:16;;;;;;;16.98;9.90;;;9.10;99.90;;;;;;4951107;28;20046;-59
2022/04/11 08:41:42;;;;;;;17.85;10.25;;;9.20;99.90;;;;;;4942675;29;20126;-59
2022/04/11 08:44:08;;;;;;;15.50;10.38;;;9.30;99.90;;;;;;4947312;29;20409;-59
2022/04/11 08:49:09;;;;;;;15.20;9.50;;;9.60;99.90;;;;;;5117976;23;20051;-60
2022/04/11 08:51:36;;;;;;;15.35;10.50;;;9.70;99.90;;;;;;4950911;28;20410;-59
2022/04/11 09:05:11;;;;;;;15.27;10.18;;;10.10;99.90;;;;;;6105009;23;20087;-58
2022/04/11 09:10:23;;;;;;;14.77;10.10;;;10.30;99.90;;;;;;5260576;23;20059;-59
2022/04/11 09:12:57;;;;;;;15.68;9.80;;;10.30;99.90;;;;;;4949245;29;20074;-59
2022/04/11 09:15:24;;;;;;;16.15;9.85;;;10.30;99.90;;;;;;4946069;29;20043;-59
2022/04/11 09:17:50;;;;;;;17.33;9.90;;;10.20;99.90;;;;;;4954913;28;20494;-59
2022/04/11 09:20:24;;;;;;;19.20;10.32;;;10.30;99.90;;;;;;4955675;28;20051;-59
2022/04/11 09:25:30;;;;;;;20.75;9.63;;;10.10;99.90;;;;;;5213197;23;19922;-58
2022/04/11 09:28:05;;;;;;;15.97;9.00;;;10.10;99.90;;;;;;4961112;28;20520;-58
2022/04/11 09:30:31;;;;;;;14.63;9.20;;;10.10;99.90;;;;;;4951310;29;20298;-58
2022/04/11 09:32:56;;;;;;;15.55;9.90;;;10.10;99.90;;;;;;4946612;29;20512;-58
2022/04/11 09:35:30;;;;;;;16.23;9.93;;;10.10;99.90;;;;;;4952628;29;20047;-58
2022/04/11 09:38:06;;;;;;;13.57;9.88;;;10.10;99.90;;;;;;4942821;28;20069;-59
2022/04/11 09:40:38;;;;;;;14.20;10.25;;;10.20;99.90;;;;;;4924978;29;20039;-59
2022/04/11 09:43:04;;;;;;;15.18;9.20;;;10.30;99.90;;;;;;4944547;28;20039;-58
2022/04/11 09:45:30;;;;;;;14.43;9.52;;;10.50;99.90;;;;;;4946627;28;20045;-58
2022/04/11 09:48:04;;;;;;;16.08;9.60;;;10.50;99.90;;;;;;4939296;28;20039;-58
2022/04/11 09:50:32;;;;;;;16.65;9.48;;;10.60;99.90;;;;;;4951173;28;20134;-58
2022/04/11 09:53:19;;;;;;;17.58;9.95;;;10.70;99.90;;;;;;4945492;28;20055;-58
2022/04/11 09:55:48;;;;;;;12.52;8.65;;;10.70;99.90;;;;;;4936695;29;20063;-60
2022/04/11 09:58:14;;;;;;;15.23;9.00;;;10.70;99.90;;;;;;4954375;29;20047;-58
2022/04/11 10:00:42;;;;;;;13.98;8.52;;;10.70;99.90;;;;;;4936843;28;20086;-58
2022/04/11 10:03:08;;;;;;;16.30;9.18;;;10.80;99.90;;;;;;4951793;28;20071;-59
2022/04/11 10:05:36;;;;;;;14.68;8.30;;;10.80;99.90;;;;;;4953094;28;20071;-59
2022/04/11 10:08:06;;;;;;;15.30;9.15;;;10.80;99.90;;;;;;4953042;29;20096;-59
2022/04/11 10:15:51;;;;;;;14.18;8.57;;;11.40;99.90;;;;;;5721719;23;20401;-58
2022/04/11 10:18:21;;;;;;;13.88;8.13;;;11.30;99.90;;;;;;4954081;28;20178;-59
2022/04/11 10:20:50;;;;;;;15.95;8.73;;;11.40;99.90;;;;;;4971298;28;20492;-58
2022/04/11 10:23:34;;;;;;;12.73;7.72;;;11.40;99.90;;;;;;4972455;28;20047;-59
2022/04/11 10:26:03;;;;;;;14.80;9.00;;;11.50;96.60;;;;;;4950107;28;20035;-61
2022/04/11 10:28:29;;;;;;;13.40;8.27;;;11.60;99.90;;;;;;4968322;28;20116;-58
2022/04/11 10:31:12;;;;;;;13.95;9.20;;;11.60;99.90;;;;;;5900386;23;20021;-60
2022/04/11 10:33:52;;;;;;;12.93;8.43;;;11.60;99.90;;;;;;4947426;28;20070;-60
2022/04/11 10:36:28;;;;;;;14.27;9.27;;;11.70;99.20;;;;;;4947024;29;20059;-60
2022/04/11 10:41:58;;;;;;;12.15;8.50;;;11.90;97.90;;;;;;5317713;23;20057;-60
2022/04/11 10:44:37;;;;;;;14.18;9.20;;;12.00;99.90;;;;;;4956812;28;20409;-60
2022/04/11 10:47:09;;;;;;;15.38;9.32;;;12.20;99.90;;;;;;4955191;28;20797;-60
2022/04/11 10:49:49;;;;;;;15.50;9.73;;;12.30;99.90;;;;;;4951575;28;20339;-60
2022/04/11 10:52:31;;;;;;;13.25;8.60;;;12.50;99.70;;;;;;4957610;28;20047;-60
2022/04/11 10:55:03;;;;;;;14.38;9.52;;;12.40;99.60;;;;;;4957549;28;20070;-60
2022/04/11 10:57:39;;;;;;;15.13;8.43;;;12.60;99.90;;;;;;4936759;29;20051;-61
2022/04/11 11:02:52;;;;;;;16.83;9.65;;;12.70;99.90;;;;;;5972096;23;20910;-60
2022/04/11 11:10:38;;;;;;;15.10;9.13;;;13.10;99.90;;;;;;4931302;29;20130;-60
2022/04/11 11:13:26;;;;;;;14.30;9.00;;;13.10;99.90;;;;;;4911243;29;20059;-59
2022/04/11 11:15:56;;;;;;;13.52;9.40;;;13.10;93.50;;;;;;4925308;29;20036;-60
2022/04/11 11:18:22;;;;;;;14.93;9.13;;;13.10;99.90;;;;;;4922250;29;20438;-60
2022/04/11 11:23:31;;;;;;;14.02;9.63;;;13.20;99.90;;;;;;5722501;23;20706;-60
2022/04/11 11:26:13;;;;;;;15.98;10.07;;;13.20;99.80;;;;;;4970762;28;20537;-60
2022/04/11 11:28:43;;;;;;;16.23;10.73;;;13.40;99.90;;;;;;4966582;28;20525;-60
2022/04/11 11:31:09;;;;;;;17.23;10.95;;;13.50;99.20;;;;;;4956334;28;20074;-60
2022/04/11 11:33:36;;;;;;;16.50;10.85;;;13.50;99.90;;;;;;4969194;28;20074;-60
2022/04/11 11:36:02;;;;;;;16.55;11.05;;;13.50;97.90;;;;;;4971130;28;20086;-60
2022/04/11 11:38:30;;;;;;;16.55;11.90;;;13.60;99.90;;;;;;5163124;23;20059;-60
2022/04/11 11:41:01;;;;;;;18.70;11.95;;;13.60;97.80;;;;;;4921746;29;20048;-60
2022/04/11 11:43:28;;;;;;;20.80;13.13;;;13.70;96.10;;;;;;4931801;29;20502;-60
2022/04/11 11:45:59;;;;;;;19.30;12.30;;;13.80;99.30;;;;;;4933989;29;20123;-60
2022/04/11 11:48:31;;;;;;;19.90;12.25;;;13.90;95.80;;;;;;4929501;29;20043;-60
2022/04/11 11:51:01;;;;;;;18.38;11.57;;;13.90;99.50;;;;;;4926262;29;20130;-60
2022/04/11 11:53:50;;;;;;;17.80;11.52;;;14.00;99.20;;;;;;5485993;23;20077;-60
2022/04/11 11:56:16;;;;;;;18.65;13.50;;;14.00;94.70;;;;;;4967905;28;20671;-60
2022/04/11 11:58:42;;;;;;;18.58;12.43;;;14.10;98.30;;;;;;4960800;28;20043;-59
2022/04/11 12:01:13;;;;;;;18.10;13.18;;;14.10;99.10;;;;;;4952802;28;20043;-59
2022/04/11 12:06:06;;;;;;;21.58;13.65;;;14.30;99.20;;;;;;4929320;29;20277;-60
2022/04/11 12:08:33;;;;;;;18.65;12.90;;;14.40;99.10;;;;;;4933332;29;20433;-60
2022/04/11 12:11:02;;;;;;;22.65;13.93;;;14.30;97.70;;;;;;4907028;29;20055;-59
2022/04/11 12:13:31;;;;;;;18.55;14.13;;;14.30;97.00;;;;;;4905897;29;20414;-60
2022/04/11 12:16:08;;;;;;;18.65;12.50;;;14.40;99.20;;;;;;4912255;29;20064;-59
2022/04/11 12:18:53;;;;;;;19.55;13.07;;;14.50;95.00;;;;;;4914620;29;20055;-59
2022/04/11 12:21:30;;;;;;;22.38;13.27;;;14.60;87.60;;;;;;4896302;29;20051;-60
2022/04/11 12:23:55;;;;;;;19.90;12.90;;;14.60;87.50;;;;;;4887261;29;20147;-60
2022/04/11 12:28:57;;;;;;;18.17;13.73;;;14.70;97.10;;;;;;5000891;23;20043;-61
2022/04/11 12:31:23;;;;;;;19.98;13.25;;;14.70;96.70;;;;;;4929668;29;20126;-60
2022/04/11 12:33:50;;;;;;;22.77;13.20;;;14.80;93.70;;;;;;4944050;29;20526;-60
2022/04/11 12:36:22;;;;;;;21.05;13.38;;;14.80;92.40;;;;;;4948354;29;20039;-60
2022/04/11 12:38:52;;;;;;;20.70;13.38;;;14.90;93.70;;;;;;4943549;29;20042;-60
2022/04/11 12:41:30;;;;;;;17.60;12.68;;;14.80;94.20;;;;;;4946693;29;20509;-60
2022/04/11 12:54:14;;;;;;;20.42;13.43;;;15.00;96.20;;;;;;4922723;29;20106;-60
2022/04/11 12:56:46;;;;;;;21.13;14.57;;;15.10;94.80;;;;;;4922392;29;20067;-59
2022/04/11 12:59:26;;;;;;;23.85;15.32;;;15.10;90.80;;;;;;4926001;29;20406;-59
2022/04/11 13:01:58;;;;;;;20.38;13.95;;;15.10;92.50;;;;;;5308859;23;20043;-60
2022/04/11 13:04:23;;;;;;;;;;;15.20;94.30;;;;;;4953404;28;20039;-60
2022/04/11 13:06:50;;;;;;;19.38;13.57;;;15.20;88.20;;;;;;4961745;28;19924;-60
2022/04/11 13:09:21;;;;;;;19.40;13.73;;;15.30;94.30;;;;;;4959350;28;20494;-60
2022/04/11 13:11:47;;;;;;;20.27;14.20;;;15.40;77.60;;;;;;4963522;28;20563;-60
2022/04/11 13:14:13;;;;;;;20.17;15.10;;;15.50;93.60;;;;;;4974178;28;20085;-60
2022/04/11 13:21:50;;;;;;;20.00;15.13;;;15.60;94.30;;;;;;5415591;23;20059;-61
2022/04/11 13:24:16;;;;;;;21.45;15.00;;;15.70;93.20;;;;;;4970521;28;20054;-61
2022/04/11 13:31:52;;;;;;;21.38;15.82;;;15.70;91.60;;;;;;5688840;23;20046;-61
2022/04/11 13:34:18;;;;;;;19.73;16.27;;;15.70;94.50;;;;;;4969494;28;20693;-61
2022/04/11 13:36:43;;;;;;;19.75;15.35;;;15.80;93.60;;;;;;4961795;28;20045;-61
2022/04/11 13:39:09;;;;;;;18.98;15.07;;;16.10;93.90;;;;;;4958310;28;20049;-61
2022/04/11 13:41:35;;;;;;;19.90;15.25;;;15.90;86.70;;;;;;4969481;28;20035;-61
2022/04/11 13:49:14;;;;;;;21.80;15.27;;;16.10;93.70;;;;;;5081764;23;20059;-60
2022/04/11 13:51:41;;;;;;;21.65;15.25;;;16.20;90.00;;;;;;4948658;28;20093;-60
2022/04/11 13:54:08;;;;;;;20.48;15.32;;;16.30;92.70;;;;;;4945495;29;20043;-61
2022/04/11 13:56:34;;;;;;;21.58;15.48;;;16.40;91.90;;;;;;4935915;29;20048;-60
2022/04/11 13:59:00;;;;;;;19.73;15.25;;;16.50;91.80;;;;;;5484927;23;20047;-61
2022/04/11 14:01:26;;;;;;;20.98;15.52;;;16.50;90.70;;;;;;4973239;28;20109;-60
2022/04/11 14:03:52;;;;;;;19.05;15.77;;;16.70;91.80;;;;;;4972963;28;20039;-61
2022/04/11 14:06:18;;;;;;;19.05;15.32;;;16.60;90.50;;;;;;4974271;28;20042;-61
2022/04/11 14:08:43;;;;;;;19.13;14.60;;;16.50;84.80;;;;;;4949417;28;20039;-61